Terminal Aerodrome Forecast
Issued by NWS

Home | Current Version | Previous Version | Text Only | Print | Product List | Glossary On
Versions: 1 2 3 4 5 6 7 8 9 10 11 12 13
000
FTAK31 PAJN 282300
TAFAKT
TAF
PAKT 282326Z 0100/0124 32009KT P6SM BKN140
     FM010300 30005KT P6SM FEW022 BKN100
     FM010900 VRB04KT P6SM BKN020 BKN080
     FM011400 VRB04KT P6SM -RA BKN015 OVC040
     FM012100 34008KT P6SM BKN015
      AMD LTD TO CLD VIS AND WIND 0106/0115=

USA.gov is the U.S. government's official web portal to all federal, state and local government web resources and services.